createdAt,value
2019-05-03T00:00:57.931Z,3.43
2019-05-03T00:03:24.773Z,3.57
2019-05-03T00:05:52.501Z,3.83
2019-05-03T00:08:19.279Z,3.47
2019-05-03T00:10:46.119Z,4.17
2019-05-03T00:13:12.965Z,4.40
2019-05-03T00:15:47.075Z,4.37
2019-05-03T00:18:13.506Z,4.70
2019-05-03T00:20:41.992Z,4.13
2019-05-03T00:23:08.548Z,4.13
2019-05-03T00:25:35.198Z,4.97
2019-05-03T00:28:02.049Z,3.90
2019-05-03T00:30:28.769Z,4.03
2019-05-03T00:32:55.713Z,4.23
2019-05-03T00:35:24.098Z,4.33
2019-05-03T00:37:52.675Z,4.30
2019-05-03T00:40:28.841Z,4.93
2019-05-03T00:42:58.037Z,4.53
2019-05-03T00:45:24.875Z,4.23
2019-05-03T00:47:52.748Z,4.73
2019-05-03T00:50:19.585Z,4.23
2019-05-03T00:52:46.018Z,4.37
2019-05-03T00:55:17.062Z,4.57
2019-05-03T00:57:42.160Z,4.40
2019-05-03T01:00:09.103Z,4.27
2019-05-03T01:02:35.742Z,4.73
2019-05-03T01:05:04.644Z,4.27
2019-05-03T01:07:31.869Z,4.27
2019-05-03T01:09:58.872Z,4.33
2019-05-03T01:12:25.368Z,4.77
2019-05-03T01:14:54.051Z,4.30
2019-05-03T01:17:22.384Z,4.03
2019-05-03T01:19:48.962Z,4.80
2019-05-03T01:22:15.600Z,4.60
2019-05-03T01:24:42.770Z,4.30
2019-05-03T01:27:09.388Z,4.40
2019-05-03T01:29:35.923Z,3.90
2019-05-03T01:32:02.561Z,3.97
2019-05-03T01:34:29.609Z,4.30
2019-05-03T01:36:56.147Z,4.43
2019-05-03T01:39:22.985Z,4.60
2019-05-03T01:41:49.621Z,4.80
2019-05-03T01:44:16.054Z,4.67
2019-05-03T01:46:42.591Z,4.50
2019-05-03T01:49:14.043Z,4.33
2019-05-03T01:51:52.649Z,4.23
2019-05-03T01:54:19.203Z,4.13
2019-05-03T01:56:56.074Z,4.27
2019-05-03T01:59:14.210Z,5.00
2019-05-03T02:01:42.590Z,4.60
2019-05-03T02:04:12.218Z,4.40
2019-05-03T02:06:39.042Z,4.80
2019-05-03T02:09:07.870Z,4.00
2019-05-03T02:11:34.808Z,5.27
2019-05-03T02:14:01.734Z,4.37
2019-05-03T02:16:28.352Z,5.50
2019-05-03T02:18:54.993Z,5.00
2019-05-03T02:21:21.718Z,5.00
2019-05-03T02:23:48.483Z,4.27
2019-05-03T02:26:15.005Z,4.43
2019-05-03T02:28:42.124Z,4.63
2019-05-03T02:31:08.794Z,5.20
2019-05-03T02:33:35.327Z,5.07
2019-05-03T02:36:03.756Z,4.80
2019-05-03T02:38:30.444Z,4.90
2019-05-03T02:40:57.082Z,4.70
2019-05-03T02:43:26.171Z,5.17
2019-05-03T02:46:00.810Z,4.80
2019-05-03T02:48:46.284Z,5.40
2019-05-03T02:51:15.446Z,5.93
2019-05-03T02:53:41.300Z,5.93
2019-05-03T02:56:20.979Z,5.33
2019-05-03T02:58:36.632Z,5.83
2019-05-03T03:01:06.468Z,5.63
2019-05-03T03:03:36.070Z,5.90
2019-05-03T03:06:06.352Z,5.57
2019-05-03T03:08:33.632Z,5.37
2019-05-03T03:11:06.605Z,5.10
2019-05-03T03:13:37.135Z,5.53
2019-05-03T03:16:07.008Z,5.10
2019-05-03T03:18:36.661Z,5.43
2019-05-03T03:21:05.826Z,5.67
2019-05-03T03:23:46.116Z,5.10
2019-05-03T03:26:20.304Z,4.63
2019-05-03T03:28:46.230Z,5.57
2019-05-03T03:31:29.026Z,5.17
2019-05-03T03:33:59.775Z,5.03
2019-05-03T03:36:45.947Z,4.40
2019-05-03T03:38:55.731Z,4.73
2019-05-03T03:41:24.959Z,5.00
2019-05-03T03:43:55.798Z,4.40
2019-05-03T03:46:25.288Z,4.77
2019-05-03T03:48:55.922Z,4.43
2019-05-03T03:51:26.148Z,4.57
2019-05-03T03:53:55.443Z,5.03
2019-05-03T03:56:20.941Z,4.50
2019-05-03T03:58:48.094Z,4.17
2019-05-03T04:01:15.696Z,4.30
2019-05-03T04:03:46.035Z,4.23
2019-05-03T04:06:12.092Z,4.10
2019-05-03T04:08:39.549Z,4.10
2019-05-03T04:11:06.396Z,4.87
2019-05-03T04:13:35.984Z,5.00
2019-05-03T04:16:05.387Z,5.03
2019-05-03T04:18:36.340Z,4.53
2019-05-03T04:21:05.398Z,4.37
2019-05-03T04:23:32.274Z,4.53
2019-05-03T04:25:59.233Z,4.33
2019-05-03T04:28:26.063Z,3.70
2019-05-03T04:30:55.186Z,4.00
2019-05-03T04:33:21.182Z,4.07
2019-05-03T04:35:47.932Z,5.03
2019-05-03T04:38:16.288Z,4.10
2019-05-03T04:40:45.115Z,4.27
2019-05-03T04:43:10.965Z,4.23
2019-05-03T04:45:37.375Z,4.17
2019-05-03T04:48:05.951Z,4.17
2019-05-03T04:50:36.370Z,4.30
2019-05-03T04:53:05.506Z,3.80
2019-05-03T04:55:30.544Z,4.23
2019-05-03T04:57:57.078Z,4.07
2019-05-03T05:00:25.593Z,3.57
2019-05-03T05:02:54.871Z,3.93
2019-05-03T05:05:20.364Z,3.73
2019-05-03T05:07:47.033Z,4.10
2019-05-03T05:10:15.334Z,4.67
2019-05-03T05:12:41.923Z,4.00
2019-05-03T05:15:08.606Z,4.60
2019-05-03T05:17:46.055Z,4.73
2019-05-03T05:20:17.627Z,4.20
2019-05-03T05:22:45.403Z,4.67
2019-05-03T05:25:14.866Z,4.33
2019-05-03T05:27:49.456Z,5.43
2019-05-03T05:30:14.815Z,5.03
2019-05-03T05:32:41.033Z,5.20
2019-05-03T05:35:07.876Z,5.33
2019-05-03T05:37:35.232Z,4.80
2019-05-03T05:40:05.202Z,4.77
2019-05-03T05:42:31.370Z,4.70
2019-05-03T05:44:57.695Z,5.27
2019-05-03T05:47:34.777Z,5.17
2019-05-03T05:50:04.933Z,5.23
2019-05-03T05:52:31.432Z,5.47
2019-05-03T05:54:59.718Z,4.60
2019-05-03T05:57:30.588Z,4.60
2019-05-03T06:00:11.108Z,4.67
2019-05-03T06:02:37.358Z,4.40
2019-05-03T06:05:05.001Z,5.00
2019-05-03T06:07:50.327Z,4.80
2019-05-03T06:10:22.188Z,4.47
2019-05-03T06:12:56.347Z,3.80
2019-05-03T06:15:26.721Z,3.90
2019-05-03T06:17:55.485Z,3.60
2019-05-03T06:20:26.845Z,3.97
2019-05-03T06:22:55.021Z,3.53
2019-05-03T06:25:29.226Z,4.03
2019-05-03T06:27:55.971Z,3.90
2019-05-03T06:30:24.829Z,4.63
2019-05-03T06:32:51.400Z,3.40
2019-05-03T06:35:17.729Z,3.53
2019-05-03T06:37:45.955Z,3.80
2019-05-03T06:40:14.769Z,3.83
2019-05-03T06:42:51.587Z,3.63
2019-05-03T06:45:11.702Z,3.33
2019-05-03T06:47:40.377Z,3.20
2019-05-03T06:50:07.297Z,3.37
2019-05-03T06:52:35.159Z,3.03
2019-05-03T06:55:06.439Z,3.23
2019-05-03T06:57:29.961Z,2.90
2019-05-03T07:00:10.217Z,3.13
2019-05-03T07:02:47.709Z,3.17
2019-05-03T07:05:31.124Z,2.97
2019-05-03T07:08:02.028Z,2.83
2019-05-03T07:10:36.090Z,3.47
2019-05-03T07:13:04.936Z,2.90
2019-05-03T07:15:31.631Z,2.60
2019-05-03T07:17:57.939Z,2.43
2019-05-03T07:20:25.529Z,3.13
2019-05-03T07:22:55.543Z,2.60
2019-05-03T07:25:22.367Z,3.20
2019-05-03T07:27:48.638Z,2.83
2019-05-03T07:30:15.698Z,3.30
2019-05-03T07:32:44.878Z,3.50
2019-05-03T07:35:11.481Z,2.63
2019-05-03T07:37:38.122Z,3.07
2019-05-03T07:40:05.466Z,2.70
2019-05-03T07:42:32.124Z,2.60
2019-05-03T07:44:58.509Z,3.23
2019-05-03T07:47:24.854Z,2.80
2019-05-03T07:49:51.198Z,2.90
2019-05-03T07:52:17.529Z,3.10
2019-05-03T07:54:45.172Z,3.40
2019-05-03T07:57:30.157Z,2.60
2019-05-03T07:59:56.411Z,2.50
2019-05-03T08:02:25.161Z,3.13
2019-05-03T08:04:50.993Z,2.27
2019-05-03T08:07:22.307Z,2.50
2019-05-03T08:09:45.817Z,2.57
2019-05-03T08:12:15.364Z,2.37
2019-05-03T08:14:40.529Z,2.50
2019-05-03T08:17:06.827Z,2.53
2019-05-03T08:19:35.523Z,2.43
2019-05-03T08:22:01.346Z,2.60
2019-05-03T08:24:27.675Z,2.90
2019-05-03T08:26:55.744Z,3.00
2019-05-03T08:29:22.061Z,2.30
2019-05-03T08:31:54.582Z,2.77
2019-05-03T08:34:22.961Z,2.23
2019-05-03T08:37:00.422Z,2.60
2019-05-03T08:39:26.756Z,3.13
2019-05-03T08:41:57.997Z,2.40
2019-05-03T08:44:25.177Z,2.40
2019-05-03T08:46:51.592Z,2.53
2019-05-03T08:49:17.909Z,2.93
2019-05-03T08:51:44.428Z,2.50
2019-05-03T08:54:10.878Z,3.20
2019-05-03T08:56:37.213Z,2.70
2019-05-03T08:59:04.669Z,3.07
2019-05-03T09:01:31.202Z,2.80
2019-05-03T09:03:57.518Z,2.37
2019-05-03T09:06:24.831Z,2.70
2019-05-03T09:08:54.365Z,2.53
2019-05-03T09:11:30.779Z,2.33
2019-05-03T09:13:55.839Z,2.90
2019-05-03T09:16:22.337Z,3.27
2019-05-03T09:18:48.825Z,2.37
2019-05-03T09:21:15.125Z,2.60
2019-05-03T09:23:41.398Z,2.97
2019-05-03T09:26:07.698Z,2.40
2019-05-03T09:28:34.845Z,2.20
2019-05-03T09:31:01.398Z,2.50
2019-05-03T09:33:27.832Z,2.40
2019-05-03T09:35:55.074Z,2.20
2019-05-03T09:38:21.389Z,2.50
2019-05-03T09:40:47.745Z,2.40
2019-05-03T09:43:15.075Z,2.50
2019-05-03T09:45:41.533Z,2.77
2019-05-03T09:48:09.531Z,3.07
2019-05-03T09:50:36.050Z,2.27
2019-05-03T09:53:02.673Z,2.30
2019-05-03T09:55:35.507Z,2.20
2019-05-03T09:58:02.107Z,2.40
2019-05-03T10:00:28.420Z,2.10
2019-05-03T10:02:54.872Z,2.40
2019-05-03T10:05:21.336Z,2.50
2019-05-03T10:07:47.720Z,2.43
2019-05-03T10:10:15.427Z,2.43
2019-05-03T10:12:41.820Z,1.90
2019-05-03T10:15:09.138Z,2.00
2019-05-03T10:17:37.309Z,2.10
2019-05-03T10:20:06.826Z,2.63
2019-05-03T10:22:34.881Z,1.97
2019-05-03T10:25:01.388Z,2.20
2019-05-03T10:27:29.728Z,2.10
2019-05-03T10:30:09.761Z,2.00
2019-05-03T10:32:38.085Z,2.37
2019-05-03T10:35:07.638Z,3.00
2019-05-03T10:37:35.863Z,2.17
2019-05-03T10:40:07.738Z,2.20
2019-05-03T10:42:32.185Z,2.30
2019-05-03T10:44:58.671Z,2.40
2019-05-03T10:47:25.521Z,2.00
2019-05-03T10:49:52.063Z,2.03
2019-05-03T10:52:20.478Z,2.07
2019-05-03T10:54:46.823Z,2.50
2019-05-03T10:57:15.912Z,2.40
2019-05-03T10:59:44.716Z,2.30
2019-05-03T11:02:18.605Z,2.10
2019-05-03T11:04:46.209Z,2.50
2019-05-03T11:07:14.742Z,2.60
2019-05-03T11:09:49.532Z,2.20
2019-05-03T11:12:09.096Z,2.50
2019-05-03T11:14:35.489Z,2.27
2019-05-03T11:17:01.811Z,2.00
2019-05-03T11:19:28.089Z,2.30
2019-05-03T11:21:54.842Z,2.23
2019-05-03T11:24:23.546Z,2.33
2019-05-03T11:26:51.210Z,2.20
2019-05-03T11:29:17.502Z,2.53
2019-05-03T11:31:48.485Z,2.17
2019-05-03T11:34:22.356Z,2.53
2019-05-03T11:36:49.698Z,2.43
2019-05-03T11:39:16.083Z,2.33
2019-05-03T11:41:45.076Z,2.80
2019-05-03T11:44:30.346Z,3.17
2019-05-03T11:46:56.617Z,2.67
2019-05-03T11:49:22.922Z,3.03
2019-05-03T11:51:49.345Z,2.30
2019-05-03T11:54:16.644Z,3.03
2019-05-03T11:56:44.941Z,2.67
2019-05-03T11:59:11.301Z,2.80
2019-05-03T12:01:39.497Z,2.60
2019-05-03T12:04:05.904Z,2.77
2019-05-03T12:06:32.202Z,2.60
2019-05-03T12:08:58.668Z,3.00
2019-05-03T12:11:25.951Z,2.80
2019-05-03T12:14:02.365Z,2.80
2019-05-03T12:16:48.104Z,2.70
2019-05-03T12:18:53.956Z,2.50
2019-05-03T12:21:20.412Z,2.67
2019-05-03T12:23:47.400Z,2.40
2019-05-03T12:26:17.190Z,2.83
2019-05-03T12:28:44.632Z,2.60
2019-05-03T12:31:25.986Z,2.73
2019-05-03T12:33:38.876Z,2.00
2019-05-03T12:36:05.610Z,2.50
2019-05-03T12:38:32.001Z,2.20
2019-05-03T12:40:58.698Z,2.80
2019-05-03T12:43:25.678Z,2.40
2019-05-03T12:45:52.432Z,2.20
2019-05-03T12:48:18.763Z,2.40
2019-05-03T12:50:46.436Z,2.80
2019-05-03T12:53:15.093Z,2.73
2019-05-03T12:55:41.356Z,2.30
2019-05-03T12:58:07.773Z,2.47
2019-05-03T13:00:42.062Z,2.50
2019-05-03T13:03:15.081Z,2.33
2019-05-03T13:05:41.588Z,2.53
2019-05-03T13:08:35.376Z,2.40
2019-05-03T13:11:01.945Z,2.60
2019-05-03T13:13:28.456Z,2.50
2019-05-03T13:15:55.013Z,2.73
2019-05-03T13:18:21.729Z,2.60
2019-05-03T13:20:48.307Z,2.60
2019-05-03T13:23:14.799Z,2.80
2019-05-03T13:25:41.232Z,2.40
2019-05-03T13:28:07.514Z,2.40
2019-05-03T13:30:34.546Z,2.83
2019-05-03T13:33:01.036Z,2.53
2019-05-03T13:35:27.372Z,2.63
2019-05-03T13:37:55.528Z,2.63
2019-05-03T13:40:21.884Z,2.90
2019-05-03T13:42:57.729Z,2.80
2019-05-03T13:45:16.635Z,2.70
2019-05-03T13:47:44.701Z,2.20
2019-05-03T13:50:11.193Z,2.53
2019-05-03T13:52:37.495Z,2.30
2019-05-03T13:55:05.427Z,2.80
2019-05-03T13:57:31.928Z,2.30
2019-05-03T13:59:58.253Z,2.30
2019-05-03T14:02:24.479Z,2.70
2019-05-03T14:04:52.932Z,2.43
2019-05-03T14:07:18.985Z,2.70
2019-05-03T14:09:45.412Z,2.47
2019-05-03T14:12:12.124Z,2.60
2019-05-03T14:14:55.738Z,3.00
2019-05-03T14:17:25.271Z,2.60
2019-05-03T14:19:54.519Z,2.80
2019-05-03T14:22:24.823Z,2.60
2019-05-03T14:24:51.050Z,2.60
2019-05-03T14:27:17.583Z,2.57
2019-05-03T14:29:45.456Z,3.03
2019-05-03T14:32:24.762Z,2.90
2019-05-03T14:34:40.057Z,2.73
2019-05-03T14:37:06.391Z,2.60
2019-05-03T14:39:32.719Z,2.80
2019-05-03T14:41:59.054Z,2.70
2019-05-03T14:44:25.433Z,2.33
2019-05-03T14:46:52.014Z,2.50
2019-05-03T14:49:18.448Z,2.80
2019-05-03T14:51:45.657Z,3.40
2019-05-03T14:54:12.134Z,2.93
2019-05-03T14:56:40.520Z,3.07
2019-05-03T14:59:27.038Z,2.80
2019-05-03T15:02:07.476Z,2.60
2019-05-03T15:04:35.069Z,3.43
2019-05-03T15:07:01.674Z,2.53
2019-05-03T15:09:28.517Z,2.93
2019-05-03T15:11:54.955Z,2.60
2019-05-03T15:14:21.893Z,3.13
2019-05-03T15:16:48.116Z,3.03
2019-05-03T15:19:14.920Z,3.53
2019-05-03T15:21:41.308Z,3.07
2019-05-03T15:24:07.829Z,2.83
2019-05-03T15:26:35.660Z,3.13
2019-05-03T15:29:02.236Z,2.37
2019-05-03T15:31:28.664Z,2.63
2019-05-03T15:33:55.522Z,2.70
2019-05-03T15:36:21.887Z,3.00
2019-05-03T15:38:48.404Z,2.77
2019-05-03T15:41:14.818Z,3.03
2019-05-03T15:43:45.201Z,2.70
2019-05-03T15:46:14.710Z,2.90
2019-05-03T15:49:40.768Z,3.07
2019-05-03T15:52:07.094Z,2.63
2019-05-03T15:54:35.201Z,2.87
2019-05-03T15:57:01.497Z,2.80
2019-05-03T15:59:27.835Z,2.70
2019-05-03T16:01:55.306Z,3.37
2019-05-03T16:04:22.035Z,3.17
2019-05-03T16:06:48.455Z,3.17
2019-05-03T16:09:15.317Z,2.60
2019-05-03T16:11:41.730Z,2.60
2019-05-03T16:14:07.999Z,3.37
2019-05-03T16:16:35.380Z,2.70
2019-05-03T16:19:01.847Z,3.07
2019-05-03T16:21:29.123Z,3.07
2019-05-03T16:23:55.760Z,2.80
2019-05-03T16:26:22.171Z,2.80
2019-05-03T16:28:55.100Z,3.30
2019-05-03T16:31:24.859Z,3.10
2019-05-03T16:33:52.018Z,3.37
2019-05-03T16:36:18.448Z,2.83
2019-05-03T16:38:45.011Z,3.33
2019-05-03T16:41:12.271Z,2.90
2019-05-03T16:43:38.701Z,3.17
2019-05-03T16:46:05.607Z,3.10
2019-05-03T16:48:32.574Z,3.30
2019-05-03T16:50:58.992Z,3.10
2019-05-03T16:53:25.558Z,3.60
2019-05-03T16:55:52.062Z,4.63
2019-05-03T16:58:18.335Z,3.23
2019-05-03T17:00:44.770Z,3.33
2019-05-03T17:03:11.361Z,3.10
2019-05-03T17:05:51.440Z,2.67
2019-05-03T17:08:25.633Z,2.50
2019-05-03T17:11:02.713Z,3.10
2019-05-03T17:13:29.141Z,3.00
2019-05-03T17:15:55.574Z,2.83
2019-05-03T17:18:24.509Z,2.60
2019-05-03T17:20:50.691Z,3.20
2019-05-03T17:23:17.235Z,3.20
2019-05-03T17:25:44.464Z,3.10
2019-05-03T17:28:11.122Z,2.60
2019-05-03T17:30:37.822Z,2.67
2019-05-03T17:33:04.580Z,2.80
2019-05-03T17:35:31.029Z,2.70
2019-05-03T17:37:57.491Z,2.70
2019-05-03T17:40:44.295Z,2.50
2019-05-03T17:43:21.560Z,2.53
2019-05-03T17:45:54.881Z,2.63
2019-05-03T17:48:21.083Z,2.80
2019-05-03T17:50:47.601Z,3.03
2019-05-03T17:53:25.944Z,2.80
2019-05-03T17:56:04.674Z,2.80
2019-05-03T17:58:45.107Z,3.13
2019-05-03T18:01:25.777Z,2.67
2019-05-03T18:04:10.668Z,2.80
2019-05-03T18:06:45.224Z,3.20
2019-05-03T18:09:14.895Z,3.63
2019-05-03T18:11:45.922Z,3.30
2019-05-03T18:14:12.360Z,3.30
2019-05-03T18:16:38.677Z,3.67
2019-05-03T18:19:05.242Z,3.30
2019-05-03T18:21:31.671Z,3.50
2019-05-03T18:23:58.293Z,3.40
2019-05-03T18:26:24.924Z,3.07
2019-05-03T18:28:51.450Z,3.40
2019-05-03T18:31:17.681Z,3.10
2019-05-03T18:33:44.382Z,3.37
2019-05-03T18:36:11.156Z,3.50
2019-05-03T18:38:38.762Z,2.93
2019-05-03T18:41:06.479Z,3.40
2019-05-03T18:43:35.067Z,3.00
2019-05-03T18:46:19.825Z,3.03
2019-05-03T18:48:46.132Z,2.83
2019-05-03T18:51:14.674Z,3.53
2019-05-03T18:53:41.120Z,3.23
2019-05-03T18:56:07.435Z,3.27
2019-05-03T18:58:33.836Z,3.43
2019-05-03T19:01:00.072Z,3.80
2019-05-03T19:03:26.492Z,3.13
2019-05-03T19:05:54.825Z,3.17
2019-05-03T19:08:24.705Z,3.47
2019-05-03T19:10:55.074Z,3.80
2019-05-03T19:13:26.474Z,3.37
2019-05-03T19:15:54.988Z,4.20
2019-05-03T19:18:29.053Z,4.20
2019-05-03T19:20:55.791Z,3.40
2019-05-03T19:23:22.255Z,3.13
2019-05-03T19:25:49.646Z,3.13
2019-05-03T19:28:16.687Z,3.40
2019-05-03T19:30:45.076Z,3.43
2019-05-03T19:33:11.572Z,3.20
2019-05-03T19:35:38.075Z,4.30
2019-05-03T19:38:04.905Z,3.60
2019-05-03T19:40:31.246Z,3.90
2019-05-03T19:42:57.676Z,3.50
2019-05-03T19:45:24.839Z,3.30
2019-05-03T19:47:51.387Z,3.30
2019-05-03T19:50:17.799Z,3.83
2019-05-03T19:53:02.742Z,3.83
2019-05-03T19:55:29.095Z,3.40
2019-05-03T19:57:55.355Z,3.63
2019-05-03T20:00:23.087Z,3.60
2019-05-03T20:02:54.445Z,3.67
2019-05-03T20:05:22.951Z,3.30
2019-05-03T20:08:05.539Z,3.70
2019-05-03T20:10:34.949Z,3.27
2019-05-03T20:13:00.849Z,3.53
2019-05-03T20:15:27.180Z,3.70
2019-05-03T20:17:59.305Z,4.03
2019-05-03T20:20:21.653Z,4.23
2019-05-03T20:22:48.014Z,3.80
2019-05-03T20:25:15.148Z,3.77
2019-05-03T20:27:41.557Z,3.57
2019-05-03T20:30:08.257Z,3.90
2019-05-03T20:32:34.889Z,3.50
2019-05-03T20:35:13.043Z,3.57
2019-05-03T20:37:30.688Z,3.73
2019-05-03T20:39:57.254Z,3.20
2019-05-03T20:42:25.359Z,2.97
2019-05-03T20:44:54.471Z,3.30
2019-05-03T20:47:22.893Z,3.00
2019-05-03T20:50:15.514Z,3.27
2019-05-03T20:52:44.332Z,2.80
2019-05-03T20:55:11.247Z,3.03
2019-05-03T20:57:37.600Z,3.00
2019-05-03T21:00:06.083Z,2.80
2019-05-03T21:02:34.386Z,2.97
2019-05-03T21:05:00.584Z,3.00
2019-05-03T21:07:26.878Z,2.93
2019-05-03T21:09:54.750Z,2.80
2019-05-03T21:12:21.449Z,3.00
2019-05-03T21:14:48.075Z,2.93
2019-05-03T21:17:19.216Z,3.03
2019-05-03T21:19:50.964Z,2.93
2019-05-03T21:22:19.158Z,3.07
2019-05-03T21:24:47.357Z,2.97
2019-05-03T21:27:13.635Z,3.10
2019-05-03T21:29:48.774Z,3.13
2019-05-03T21:32:15.204Z,3.70
2019-05-03T21:34:41.536Z,3.67
2019-05-03T21:37:09.507Z,3.90
2019-05-03T21:39:36.160Z,4.00
2019-05-03T21:42:04.624Z,3.70
2019-05-03T21:44:31.508Z,3.80
2019-05-03T21:46:59.710Z,3.67
2019-05-03T21:49:28.239Z,3.30
2019-05-03T21:51:54.564Z,3.63
2019-05-03T21:54:20.986Z,3.80
2019-05-03T21:56:47.418Z,3.30
2019-05-03T21:59:13.660Z,3.30
2019-05-03T22:01:42.025Z,3.83
2019-05-03T22:04:08.355Z,3.60
2019-05-03T22:06:35.058Z,3.43
2019-05-03T22:09:04.596Z,3.17
2019-05-03T22:11:31.032Z,3.17
2019-05-03T22:14:24.487Z,3.70
2019-05-03T22:16:58.815Z,3.83
2019-05-03T22:19:25.473Z,3.77
2019-05-03T22:21:55.304Z,3.97
2019-05-03T22:24:25.268Z,3.80
2019-05-03T22:27:04.547Z,3.60
2019-05-03T22:29:30.742Z,4.37
2019-05-03T22:31:57.071Z,3.50
2019-05-03T22:34:25.475Z,4.07
2019-05-03T22:36:51.792Z,4.33
2019-05-03T22:39:18.074Z,3.90
2019-05-03T22:41:44.447Z,3.43
2019-05-03T22:44:10.778Z,4.63
2019-05-03T22:46:37.037Z,3.97
2019-05-03T22:49:04.883Z,4.00
2019-05-03T22:51:34.557Z,3.60
2019-05-03T22:53:59.496Z,3.87
2019-05-03T22:56:26.030Z,4.40
2019-05-03T22:58:54.740Z,4.10
2019-05-03T23:01:20.820Z,4.40
2019-05-03T23:03:47.159Z,4.13
2019-05-03T23:06:20.391Z,4.57
2019-05-03T23:08:41.757Z,4.30
2019-05-03T23:11:08.019Z,3.90
2019-05-03T23:13:34.335Z,4.20
2019-05-03T23:16:00.744Z,3.50
2019-05-03T23:18:27.075Z,3.53
2019-05-03T23:21:07.222Z,4.10
2019-05-03T23:23:49.875Z,3.70
2019-05-03T23:26:16.478Z,3.17
2019-05-03T23:28:44.604Z,2.90
2019-05-03T23:31:11.188Z,3.60
2019-05-03T23:33:37.521Z,3.80
2019-05-03T23:36:04.569Z,3.50
2019-05-03T23:38:30.961Z,3.47
2019-05-03T23:40:57.331Z,2.90
2019-05-03T23:43:25.170Z,3.40
2019-05-03T23:45:51.586Z,2.97
2019-05-03T23:48:17.958Z,3.53
2019-05-03T23:50:44.648Z,3.70
2019-05-03T23:53:11.038Z,3.43
2019-05-03T23:55:39.209Z,3.87
2019-05-03T23:58:05.636Z,2.97
